logo dgac
Lunes 20 de Mayo del 2019
Buscar por aerodromo o helipuerto
Ingrese nombre de aeródromo, localidad o designador OACI:
METAR del 20-05-2019 a las 13:00 UTC
METAR SCFT 201300Z 11004KT 9999 OVC003 02/00 Q1030
Viento: dirección 110 grados, velocidad 4 nudos
Visibilidad: 10 km o más
Nubes: Cubierto a 300 pies sobre el nivel del aeródromo
Temperatura: 2 °C
Rocío: 0 °C
Humedad_relativa: 87%
Presión: 1030 hPa
METAR del 20-05-2019 a las 13:00 UTC
METAR SCFT 201300Z 11004KT 9999 OVC003 02/00 Q1030
Viento: dirección 110 grados, velocidad 4 nudos
Visibilidad: 10 km o más
Nubes: Cubierto a 300 pies sobre el nivel del aeródromo
Temperatura: 2 °C
Rocío: 0 °C
Humedad_relativa: 87%
Presión: 1030 hPa
METAR del 20-05-2019 a las 12:00 UTC
METAR SCFT 201200Z AUTO 13003KT 100V160 9999 ///011 02/00 Q1029
Nan: AUTO
Viento: dirección 130 grados, velocidad 3 nudos
Viento con dirección variable entre 100 y 160 grados
Visibilidad: 10 km o más
Nan: ///011
Temperatura: 2 °C
Rocío: 0 °C
Humedad_relativa: 87%
Presión: 1029 hPa
METAR del 20-05-2019 a las 12:00 UTC
METAR SCFT 201200Z AUTO 13003KT 100V160 9999 ///011 02/00 Q1029
Nan: AUTO
Viento: dirección 130 grados, velocidad 3 nudos
Viento con dirección variable entre 100 y 160 grados
Visibilidad: 10 km o más
Nan: ///011
Temperatura: 2 °C
Rocío: 0 °C
Humedad_relativa: 87%
Presión: 1029 hPa
METAR del 20-05-2019 a las 11:00 UTC
METAR SCFT 201100Z AUTO 09003KT 9999 ///011 02/01 Q1029
Nan: AUTO
Viento: dirección 090 grados, velocidad 3 nudos
Visibilidad: 10 km o más
Nan: ///011
Temperatura: 2 °C
Rocío: 1 °C
Humedad_relativa: 93%
Presión: 1029 hPa
METAR del 20-05-2019 a las 10:00 UTC
METAR SCFT 201000Z AUTO VRB02KT 9999 ///011 02/01 Q1028
Nan: AUTO
Viento: dirección variable, velocidad 2 nudos
Visibilidad: 10 km o más
Nan: ///011
Temperatura: 2 °C
Rocío: 1 °C
Humedad_relativa: 93%
Presión: 1028 hPa
METAR del 20-05-2019 a las 09:00 UTC
METAR SCFT 200900Z AUTO 00000KT 9999 ///008 02/02 Q1028
Nan: AUTO
Visibilidad: 10 km o más
Nan: ///008
Temperatura: 2 °C
Rocío: 2 °C
Humedad_relativa: 100%
Presión: 1028 hPa
METAR del 20-05-2019 a las 08:00 UTC
METAR SCFT 200800Z AUTO VRB01KT 9999 ///002 02/02 Q1028
Nan: AUTO
Viento: dirección variable, velocidad 1 nudos
Visibilidad: 10 km o más
Nan: ///002
Temperatura: 2 °C
Rocío: 2 °C
Humedad_relativa: 100%
Presión: 1028 hPa
METAR del 20-05-2019 a las 07:00 UTC
METAR SCFT 200700Z AUTO 04003KT 010V090 2900 BR ///002 01/01 Q1027
Nan: AUTO
Viento: dirección 040 grados, velocidad 3 nudos
Viento con dirección variable entre 010 y 090 grados
Visibilidad: 2900 metros
Neblina
Nan: ///002
Temperatura: 1 °C
Rocío: 1 °C
Humedad_relativa: 100%
Presión: 1027 hPa
METAR del 20-05-2019 a las 06:00 UTC
METAR SCFT 200600Z AUTO VRB02G37KT 1300 R/////// FG ///002 02/01 Q1027
Nan: AUTO
Viento: dirección variable, velocidad 2 nudos, con ráfagas de velocidad máxima de 37Nudos
Visibilidad: 1300 metros
Nan: R///////
Niebla
Nan: ///002
Temperatura: 2 °C
Rocío: 1 °C
Humedad_relativa: 93%
Presión: 1027 hPa